sensor_id;sensor_type;location;lat;lon;timestamp;P1;durP1;ratioP1;P2;durP2;ratioP2
9176;SDS011;4623;54.310;10.112;2022-12-18T00:01:46;25.37;;;15.63;;
9176;SDS011;4623;54.310;10.112;2022-12-18T00:04:22;19.97;;;14.87;;
9176;SDS011;4623;54.310;10.112;2022-12-18T00:06:49;19.33;;;15.27;;
9176;SDS011;4623;54.310;10.112;2022-12-18T00:09:15;22.33;;;16.07;;
9176;SDS011;4623;54.310;10.112;2022-12-18T00:11:41;17.43;;;13.27;;
9176;SDS011;4623;54.310;10.112;2022-12-18T00:14:08;19.83;;;14.20;;
9176;SDS011;4623;54.310;10.112;2022-12-18T00:16:35;19.63;;;14.77;;
9176;SDS011;4623;54.310;10.112;2022-12-18T00:19:01;21.53;;;15.00;;
9176;SDS011;4623;54.310;10.112;2022-12-18T00:21:28;20.27;;;14.53;;
9176;SDS011;4623;54.310;10.112;2022-12-18T00:23:54;19.80;;;15.90;;
9176;SDS011;4623;54.310;10.112;2022-12-18T00:26:21;23.53;;;16.70;;
9176;SDS011;4623;54.310;10.112;2022-12-18T00:28:49;23.23;;;15.90;;
9176;SDS011;4623;54.310;10.112;2022-12-18T00:31:16;21.00;;;15.43;;
9176;SDS011;4623;54.310;10.112;2022-12-18T00:33:44;17.50;;;15.57;;
9176;SDS011;4623;54.310;10.112;2022-12-18T00:36:11;21.47;;;16.37;;
9176;SDS011;4623;54.310;10.112;2022-12-18T00:38:39;18.70;;;14.93;;
9176;SDS011;4623;54.310;10.112;2022-12-18T00:41:05;23.30;;;15.87;;
9176;SDS011;4623;54.310;10.112;2022-12-18T00:43:32;17.70;;;14.70;;
9176;SDS011;4623;54.310;10.112;2022-12-18T00:45:59;21.30;;;14.43;;
9176;SDS011;4623;54.310;10.112;2022-12-18T00:48:24;19.83;;;15.07;;
9176;SDS011;4623;54.310;10.112;2022-12-18T00:50:50;22.27;;;14.57;;
9176;SDS011;4623;54.310;10.112;2022-12-18T00:53:16;20.20;;;14.77;;
9176;SDS011;4623;54.310;10.112;2022-12-18T00:55:43;20.67;;;14.80;;
9176;SDS011;4623;54.310;10.112;2022-12-18T00:58:10;17.87;;;14.57;;
9176;SDS011;4623;54.310;10.112;2022-12-18T01:00:37;22.93;;;14.93;;
9176;SDS011;4623;54.310;10.112;2022-12-18T01:03:03;18.40;;;13.33;;
9176;SDS011;4623;54.310;10.112;2022-12-18T01:05:29;19.60;;;14.20;;
9176;SDS011;4623;54.310;10.112;2022-12-18T01:07:55;19.13;;;14.37;;
9176;SDS011;4623;54.310;10.112;2022-12-18T01:10:21;20.10;;;15.23;;
9176;SDS011;4623;54.310;10.112;2022-12-18T01:12:46;18.30;;;13.67;;
9176;SDS011;4623;54.310;10.112;2022-12-18T01:15:13;20.57;;;14.63;;
9176;SDS011;4623;54.310;10.112;2022-12-18T01:17:39;20.47;;;14.93;;
9176;SDS011;4623;54.310;10.112;2022-12-18T01:20:04;19.17;;;14.67;;
9176;SDS011;4623;54.310;10.112;2022-12-18T01:22:30;20.23;;;15.10;;
9176;SDS011;4623;54.310;10.112;2022-12-18T01:24:56;21.73;;;15.33;;
9176;SDS011;4623;54.310;10.112;2022-12-18T01:27:22;18.30;;;14.10;;
9176;SDS011;4623;54.310;10.112;2022-12-18T01:29:48;17.63;;;15.10;;
9176;SDS011;4623;54.310;10.112;2022-12-18T01:32:14;18.20;;;13.23;;
9176;SDS011;4623;54.310;10.112;2022-12-18T01:34:39;20.40;;;15.70;;
9176;SDS011;4623;54.310;10.112;2022-12-18T01:37:05;15.37;;;13.73;;
9176;SDS011;4623;54.310;10.112;2022-12-18T01:39:30;19.63;;;14.83;;
9176;SDS011;4623;54.310;10.112;2022-12-18T01:41:57;20.53;;;15.67;;
9176;SDS011;4623;54.310;10.112;2022-12-18T01:47:33;23.13;;;14.30;;
9176;SDS011;4623;54.310;10.112;2022-12-18T01:50:07;21.20;;;13.87;;
9176;SDS011;4623;54.310;10.112;2022-12-18T01:52:33;19.40;;;14.90;;
9176;SDS011;4623;54.310;10.112;2022-12-18T01:55:00;18.00;;;13.97;;
9176;SDS011;4623;54.310;10.112;2022-12-18T01:57:27;17.83;;;13.53;;
9176;SDS011;4623;54.310;10.112;2022-12-18T01:59:53;22.10;;;13.30;;
9176;SDS011;4623;54.310;10.112;2022-12-18T02:02:23;18.47;;;14.33;;
9176;SDS011;4623;54.310;10.112;2022-12-18T02:04:51;21.97;;;13.93;;
9176;SDS011;4623;54.310;10.112;2022-12-18T02:09:52;19.30;;;14.43;;
9176;SDS011;4623;54.310;10.112;2022-12-18T02:12:24;16.17;;;12.50;;
9176;SDS011;4623;54.310;10.112;2022-12-18T02:15:00;19.20;;;12.83;;
9176;SDS011;4623;54.310;10.112;2022-12-18T02:20:21;21.83;;;14.30;;
9176;SDS011;4623;54.310;10.112;2022-12-18T02:26:07;20.17;;;13.47;;
9176;SDS011;4623;54.310;10.112;2022-12-18T02:28:39;15.33;;;12.80;;
9176;SDS011;4623;54.310;10.112;2022-12-18T02:31:10;14.60;;;12.33;;
9176;SDS011;4623;54.310;10.112;2022-12-18T02:33:38;21.33;;;14.27;;
9176;SDS011;4623;54.310;10.112;2022-12-18T02:36:06;17.47;;;13.43;;
9176;SDS011;4623;54.310;10.112;2022-12-18T02:38:33;22.37;;;12.57;;
9176;SDS011;4623;54.310;10.112;2022-12-18T02:41:00;19.27;;;12.23;;
9176;SDS011;4623;54.310;10.112;2022-12-18T02:43:26;18.83;;;13.13;;
9176;SDS011;4623;54.310;10.112;2022-12-18T02:45:55;16.63;;;13.27;;
9176;SDS011;4623;54.310;10.112;2022-12-18T02:48:24;21.97;;;13.13;;
9176;SDS011;4623;54.310;10.112;2022-12-18T02:51:39;17.97;;;13.33;;
9176;SDS011;4623;54.310;10.112;2022-12-18T02:53:53;18.30;;;14.43;;
9176;SDS011;4623;54.310;10.112;2022-12-18T02:56:29;15.60;;;13.10;;
9176;SDS011;4623;54.310;10.112;2022-12-18T03:04:08;16.53;;;13.00;;
9176;SDS011;4623;54.310;10.112;2022-12-18T03:06:42;16.97;;;13.33;;
9176;SDS011;4623;54.310;10.112;2022-12-18T03:09:14;18.57;;;13.50;;
9176;SDS011;4623;54.310;10.112;2022-12-18T03:11:45;19.17;;;13.07;;
9176;SDS011;4623;54.310;10.112;2022-12-18T03:14:34;14.70;;;12.60;;
9176;SDS011;4623;54.310;10.112;2022-12-18T03:17:03;17.87;;;11.67;;
9176;SDS011;4623;54.310;10.112;2022-12-18T03:19:37;19.03;;;12.40;;
9176;SDS011;4623;54.310;10.112;2022-12-18T03:22:04;15.77;;;12.53;;
9176;SDS011;4623;54.310;10.112;2022-12-18T03:24:32;17.33;;;12.67;;
9176;SDS011;4623;54.310;10.112;2022-12-18T03:27:02;18.80;;;13.27;;
9176;SDS011;4623;54.310;10.112;2022-12-18T03:29:32;17.20;;;12.43;;
9176;SDS011;4623;54.310;10.112;2022-12-18T03:32:02;19.43;;;12.13;;
9176;SDS011;4623;54.310;10.112;2022-12-18T03:34:33;16.30;;;11.67;;
9176;SDS011;4623;54.310;10.112;2022-12-18T03:37:02;16.37;;;13.50;;
9176;SDS011;4623;54.310;10.112;2022-12-18T03:39:28;16.17;;;12.33;;
9176;SDS011;4623;54.310;10.112;2022-12-18T03:50:37;20.40;;;13.37;;
9176;SDS011;4623;54.310;10.112;2022-12-18T03:53:10;16.27;;;12.73;;
9176;SDS011;4623;54.310;10.112;2022-12-18T03:55:42;15.07;;;12.03;;
9176;SDS011;4623;54.310;10.112;2022-12-18T03:58:09;18.20;;;11.97;;
9176;SDS011;4623;54.310;10.112;2022-12-18T04:00:40;15.17;;;12.17;;
9176;SDS011;4623;54.310;10.112;2022-12-18T04:03:06;15.93;;;12.00;;
9176;SDS011;4623;54.310;10.112;2022-12-18T04:05:35;17.07;;;11.73;;
9176;SDS011;4623;54.310;10.112;2022-12-18T04:08:02;17.13;;;12.47;;
9176;SDS011;4623;54.310;10.112;2022-12-18T04:10:28;17.03;;;12.93;;
9176;SDS011;4623;54.310;10.112;2022-12-18T04:12:55;18.37;;;12.47;;
9176;SDS011;4623;54.310;10.112;2022-12-18T04:15:22;18.57;;;13.03;;
9176;SDS011;4623;54.310;10.112;2022-12-18T04:17:48;13.50;;;12.10;;
9176;SDS011;4623;54.310;10.112;2022-12-18T04:20:14;14.40;;;11.60;;
9176;SDS011;4623;54.310;10.112;2022-12-18T04:22:40;12.87;;;11.50;;
9176;SDS011;4623;54.310;10.112;2022-12-18T04:25:06;13.50;;;12.00;;
9176;SDS011;4623;54.310;10.112;2022-12-18T04:27:32;13.73;;;11.10;;
9176;SDS011;4623;54.310;10.112;2022-12-18T04:29:57;15.13;;;11.83;;
9176;SDS011;4623;54.310;10.112;2022-12-18T04:32:22;15.80;;;12.97;;
9176;SDS011;4623;54.310;10.112;2022-12-18T04:34:48;11.57;;;10.13;;
9176;SDS011;4623;54.310;10.112;2022-12-18T04:37:13;13.60;;;11.40;;
9176;SDS011;4623;54.310;10.112;2022-12-18T04:39:39;17.23;;;11.50;;
9176;SDS011;4623;54.310;10.112;2022-12-18T04:42:04;16.23;;;11.50;;
9176;SDS011;4623;54.310;10.112;2022-12-18T04:44:30;13.70;;;12.27;;
9176;SDS011;4623;54.310;10.112;2022-12-18T04:46:56;17.13;;;12.47;;
9176;SDS011;4623;54.310;10.112;2022-12-18T04:49:21;16.23;;;12.17;;
9176;SDS011;4623;54.310;10.112;2022-12-18T04:51:47;12.67;;;11.30;;
9176;SDS011;4623;54.310;10.112;2022-12-18T04:54:12;17.73;;;11.80;;
9176;SDS011;4623;54.310;10.112;2022-12-18T04:56:38;14.77;;;11.40;;
9176;SDS011;4623;54.310;10.112;2022-12-18T04:59:03;16.10;;;12.97;;
9176;SDS011;4623;54.310;10.112;2022-12-18T05:01:29;15.37;;;11.90;;
9176;SDS011;4623;54.310;10.112;2022-12-18T05:03:55;16.37;;;11.90;;
9176;SDS011;4623;54.310;10.112;2022-12-18T05:06:20;15.40;;;12.50;;
9176;SDS011;4623;54.310;10.112;2022-12-18T05:08:46;19.47;;;11.53;;
9176;SDS011;4623;54.310;10.112;2022-12-18T05:11:12;17.40;;;11.57;;
9176;SDS011;4623;54.310;10.112;2022-12-18T05:13:40;15.87;;;11.90;;
9176;SDS011;4623;54.310;10.112;2022-12-18T05:16:06;15.17;;;12.17;;
9176;SDS011;4623;54.310;10.112;2022-12-18T05:18:32;14.47;;;12.17;;
9176;SDS011;4623;54.310;10.112;2022-12-18T05:20:58;13.10;;;11.40;;
9176;SDS011;4623;54.310;10.112;2022-12-18T05:23:24;13.70;;;10.33;;
9176;SDS011;4623;54.310;10.112;2022-12-18T05:28:23;14.80;;;11.30;;
9176;SDS011;4623;54.310;10.112;2022-12-18T05:30:55;15.10;;;11.50;;
9176;SDS011;4623;54.310;10.112;2022-12-18T05:33:22;12.60;;;10.50;;
9176;SDS011;4623;54.310;10.112;2022-12-18T05:35:50;14.67;;;11.47;;
9176;SDS011;4623;54.310;10.112;2022-12-18T05:38:16;15.33;;;11.93;;
9176;SDS011;4623;54.310;10.112;2022-12-18T05:40:42;12.20;;;10.90;;
9176;SDS011;4623;54.310;10.112;2022-12-18T05:43:08;16.40;;;11.30;;
9176;SDS011;4623;54.310;10.112;2022-12-18T05:45:36;15.37;;;10.83;;
9176;SDS011;4623;54.310;10.112;2022-12-18T05:48:03;14.33;;;10.90;;
9176;SDS011;4623;54.310;10.112;2022-12-18T05:50:29;13.13;;;10.20;;
9176;SDS011;4623;54.310;10.112;2022-12-18T05:52:54;15.70;;;11.43;;
9176;SDS011;4623;54.310;10.112;2022-12-18T05:55:20;18.13;;;11.90;;
9176;SDS011;4623;54.310;10.112;2022-12-18T05:57:45;18.57;;;11.80;;
9176;SDS011;4623;54.310;10.112;2022-12-18T06:00:11;14.83;;;11.43;;
9176;SDS011;4623;54.310;10.112;2022-12-18T06:02:37;13.17;;;11.80;;
9176;SDS011;4623;54.310;10.112;2022-12-18T06:05:03;17.73;;;11.60;;
9176;SDS011;4623;54.310;10.112;2022-12-18T06:07:28;12.10;;;10.83;;
9176;SDS011;4623;54.310;10.112;2022-12-18T06:09:54;13.53;;;11.43;;
9176;SDS011;4623;54.310;10.112;2022-12-18T06:12:19;13.20;;;10.83;;
9176;SDS011;4623;54.310;10.112;2022-12-18T06:14:46;12.57;;;10.70;;
9176;SDS011;4623;54.310;10.112;2022-12-18T06:17:11;13.80;;;11.30;;
9176;SDS011;4623;54.310;10.112;2022-12-18T06:19:37;17.47;;;11.17;;
9176;SDS011;4623;54.310;10.112;2022-12-18T06:22:02;12.43;;;10.57;;
9176;SDS011;4623;54.310;10.112;2022-12-18T06:24:28;14.60;;;11.47;;
9176;SDS011;4623;54.310;10.112;2022-12-18T06:26:54;12.30;;;9.63;;
9176;SDS011;4623;54.310;10.112;2022-12-18T06:29:20;14.37;;;11.57;;
9176;SDS011;4623;54.310;10.112;2022-12-18T06:31:45;14.63;;;10.33;;
9176;SDS011;4623;54.310;10.112;2022-12-18T06:34:11;10.33;;;9.37;;
9176;SDS011;4623;54.310;10.112;2022-12-18T06:36:36;12.23;;;10.67;;
9176;SDS011;4623;54.310;10.112;2022-12-18T06:39:02;11.73;;;9.80;;
9176;SDS011;4623;54.310;10.112;2022-12-18T06:41:27;16.70;;;10.77;;
9176;SDS011;4623;54.310;10.112;2022-12-18T06:43:53;11.97;;;9.83;;
9176;SDS011;4623;54.310;10.112;2022-12-18T06:46:18;13.33;;;10.17;;
9176;SDS011;4623;54.310;10.112;2022-12-18T06:48:46;14.70;;;10.30;;
9176;SDS011;4623;54.310;10.112;2022-12-18T06:51:15;11.90;;;9.80;;
9176;SDS011;4623;54.310;10.112;2022-12-18T06:53:45;12.60;;;9.60;;
9176;SDS011;4623;54.310;10.112;2022-12-18T06:56:10;22.20;;;11.97;;
9176;SDS011;4623;54.310;10.112;2022-12-18T06:58:36;13.00;;;10.13;;
9176;SDS011;4623;54.310;10.112;2022-12-18T07:01:06;14.80;;;10.57;;
9176;SDS011;4623;54.310;10.112;2022-12-18T07:03:33;11.20;;;10.00;;
9176;SDS011;4623;54.310;10.112;2022-12-18T07:05:59;13.83;;;10.60;;
9176;SDS011;4623;54.310;10.112;2022-12-18T07:08:24;14.40;;;10.47;;
9176;SDS011;4623;54.310;10.112;2022-12-18T07:10:50;11.60;;;10.23;;
9176;SDS011;4623;54.310;10.112;2022-12-18T07:13:16;13.60;;;9.97;;
9176;SDS011;4623;54.310;10.112;2022-12-18T07:15:42;14.33;;;10.43;;
9176;SDS011;4623;54.310;10.112;2022-12-18T07:18:08;13.23;;;10.03;;
9176;SDS011;4623;54.310;10.112;2022-12-18T07:20:33;11.77;;;9.47;;
9176;SDS011;4623;54.310;10.112;2022-12-18T07:22:59;13.60;;;11.73;;
9176;SDS011;4623;54.310;10.112;2022-12-18T07:25:27;13.67;;;9.73;;
9176;SDS011;4623;54.310;10.112;2022-12-18T07:27:53;13.20;;;10.33;;
9176;SDS011;4623;54.310;10.112;2022-12-18T07:30:19;12.07;;;9.67;;
9176;SDS011;4623;54.310;10.112;2022-12-18T07:32:44;10.87;;;9.57;;
9176;SDS011;4623;54.310;10.112;2022-12-18T07:35:10;12.13;;;10.10;;
9176;SDS011;4623;54.310;10.112;2022-12-18T07:37:35;13.23;;;10.23;;
9176;SDS011;4623;54.310;10.112;2022-12-18T07:40:01;11.87;;;9.27;;
9176;SDS011;4623;54.310;10.112;2022-12-18T07:42:27;12.80;;;9.73;;
9176;SDS011;4623;54.310;10.112;2022-12-18T07:44:55;11.93;;;9.80;;
9176;SDS011;4623;54.310;10.112;2022-12-18T07:47:21;13.93;;;10.07;;
9176;SDS011;4623;54.310;10.112;2022-12-18T07:49:47;11.33;;;9.97;;
9176;SDS011;4623;54.310;10.112;2022-12-18T07:52:12;11.43;;;9.83;;
9176;SDS011;4623;54.310;10.112;2022-12-18T07:54:38;10.00;;;9.00;;
9176;SDS011;4623;54.310;10.112;2022-12-18T07:57:05;13.50;;;9.93;;
9176;SDS011;4623;54.310;10.112;2022-12-18T07:59:30;11.00;;;9.27;;
9176;SDS011;4623;54.310;10.112;2022-12-18T08:01:56;10.73;;;9.23;;
9176;SDS011;4623;54.310;10.112;2022-12-18T08:04:21;13.17;;;8.87;;
9176;SDS011;4623;54.310;10.112;2022-12-18T08:06:47;11.53;;;9.93;;
9176;SDS011;4623;54.310;10.112;2022-12-18T08:09:12;11.27;;;9.57;;
9176;SDS011;4623;54.310;10.112;2022-12-18T08:11:38;11.87;;;10.17;;
9176;SDS011;4623;54.310;10.112;2022-12-18T08:14:03;11.47;;;9.63;;
9176;SDS011;4623;54.310;10.112;2022-12-18T08:16:29;13.13;;;9.70;;
9176;SDS011;4623;54.310;10.112;2022-12-18T08:18:55;25.10;;;9.23;;
9176;SDS011;4623;54.310;10.112;2022-12-18T08:21:22;13.57;;;10.37;;
9176;SDS011;4623;54.310;10.112;2022-12-18T08:23:50;15.97;;;10.40;;
9176;SDS011;4623;54.310;10.112;2022-12-18T08:26:16;14.93;;;10.07;;
9176;SDS011;4623;54.310;10.112;2022-12-18T08:28:42;15.23;;;9.90;;
9176;SDS011;4623;54.310;10.112;2022-12-18T08:31:08;11.23;;;10.07;;
9176;SDS011;4623;54.310;10.112;2022-12-18T08:33:34;12.80;;;10.10;;
9176;SDS011;4623;54.310;10.112;2022-12-18T08:36:00;13.60;;;9.93;;
9176;SDS011;4623;54.310;10.112;2022-12-18T08:38:27;13.03;;;10.57;;
9176;SDS011;4623;54.310;10.112;2022-12-18T08:41:05;12.40;;;9.80;;
9176;SDS011;4623;54.310;10.112;2022-12-18T08:43:32;12.13;;;10.83;;
9176;SDS011;4623;54.310;10.112;2022-12-18T08:46:20;11.20;;;9.83;;
9176;SDS011;4623;54.310;10.112;2022-12-18T08:48:50;14.57;;;11.37;;
9176;SDS011;4623;54.310;10.112;2022-12-18T08:51:16;12.30;;;10.37;;
9176;SDS011;4623;54.310;10.112;2022-12-18T08:53:42;11.13;;;9.43;;
9176;SDS011;4623;54.310;10.112;2022-12-18T08:56:09;12.10;;;9.40;;
9176;SDS011;4623;54.310;10.112;2022-12-18T08:58:35;12.67;;;10.10;;
9176;SDS011;4623;54.310;10.112;2022-12-18T09:01:01;14.07;;;9.93;;
9176;SDS011;4623;54.310;10.112;2022-12-18T09:03:30;11.37;;;10.03;;
9176;SDS011;4623;54.310;10.112;2022-12-18T09:05:56;13.10;;;9.40;;
9176;SDS011;4623;54.310;10.112;2022-12-18T09:08:22;12.17;;;9.90;;
9176;SDS011;4623;54.310;10.112;2022-12-18T09:10:48;11.60;;;9.63;;
9176;SDS011;4623;54.310;10.112;2022-12-18T09:13:15;12.00;;;10.73;;
9176;SDS011;4623;54.310;10.112;2022-12-18T09:15:42;12.40;;;9.90;;
9176;SDS011;4623;54.310;10.112;2022-12-18T09:18:12;10.88;;;9.63;;
9176;SDS011;4623;54.310;10.112;2022-12-18T09:20:39;11.47;;;9.80;;
9176;SDS011;4623;54.310;10.112;2022-12-18T09:23:05;14.30;;;10.67;;
9176;SDS011;4623;54.310;10.112;2022-12-18T09:25:31;12.70;;;10.57;;
9176;SDS011;4623;54.310;10.112;2022-12-18T09:27:59;11.50;;;9.83;;
9176;SDS011;4623;54.310;10.112;2022-12-18T09:30:25;11.77;;;9.77;;
9176;SDS011;4623;54.310;10.112;2022-12-18T09:32:51;13.90;;;10.03;;
9176;SDS011;4623;54.310;10.112;2022-12-18T09:35:16;13.50;;;10.53;;
9176;SDS011;4623;54.310;10.112;2022-12-18T09:37:42;13.33;;;11.17;;
9176;SDS011;4623;54.310;10.112;2022-12-18T09:40:12;12.60;;;10.77;;
9176;SDS011;4623;54.310;10.112;2022-12-18T09:42:40;13.60;;;11.20;;
9176;SDS011;4623;54.310;10.112;2022-12-18T09:45:08;13.80;;;11.40;;
9176;SDS011;4623;54.310;10.112;2022-12-18T09:47:39;12.37;;;11.10;;
9176;SDS011;4623;54.310;10.112;2022-12-18T09:50:20;14.50;;;11.07;;
9176;SDS011;4623;54.310;10.112;2022-12-18T09:52:51;12.33;;;10.20;;
9176;SDS011;4623;54.310;10.112;2022-12-18T09:57:55;13.17;;;9.93;;
9176;SDS011;4623;54.310;10.112;2022-12-18T10:00:24;10.47;;;9.37;;
9176;SDS011;4623;54.310;10.112;2022-12-18T10:02:57;12.77;;;11.10;;
9176;SDS011;4623;54.310;10.112;2022-12-18T10:19:34;14.47;;;11.47;;
9176;SDS011;4623;54.310;10.112;2022-12-18T10:24:38;11.77;;;10.50;;
9176;SDS011;4623;54.310;10.112;2022-12-18T10:27:15;11.47;;;10.27;;
9176;SDS011;4623;54.310;10.112;2022-12-18T10:29:42;13.20;;;10.13;;
9176;SDS011;4623;54.310;10.112;2022-12-18T10:32:16;13.03;;;11.17;;
9176;SDS011;4623;54.310;10.112;2022-12-18T10:34:45;14.20;;;11.17;;
9176;SDS011;4623;54.310;10.112;2022-12-18T10:37:15;13.60;;;9.97;;
9176;SDS011;4623;54.310;10.112;2022-12-18T10:39:46;11.03;;;9.97;;
9176;SDS011;4623;54.310;10.112;2022-12-18T10:42:29;10.73;;;9.63;;
9176;SDS011;4623;54.310;10.112;2022-12-18T10:45:01;12.07;;;10.87;;
9176;SDS011;4623;54.310;10.112;2022-12-18T10:47:34;11.47;;;10.27;;
9176;SDS011;4623;54.310;10.112;2022-12-18T10:50:00;12.00;;;10.83;;
9176;SDS011;4623;54.310;10.112;2022-12-18T10:52:26;12.83;;;10.90;;
9176;SDS011;4623;54.310;10.112;2022-12-18T10:59:55;12.17;;;10.27;;
9176;SDS011;4623;54.310;10.112;2022-12-18T11:02:35;11.33;;;9.57;;
9176;SDS011;4623;54.310;10.112;2022-12-18T11:05:03;11.70;;;10.20;;
9176;SDS011;4623;54.310;10.112;2022-12-18T11:07:49;12.37;;;9.83;;
9176;SDS011;4623;54.310;10.112;2022-12-18T11:10:18;11.53;;;10.33;;
9176;SDS011;4623;54.310;10.112;2022-12-18T11:12:45;12.70;;;10.43;;
9176;SDS011;4623;54.310;10.112;2022-12-18T11:15:22;12.47;;;11.07;;
9176;SDS011;4623;54.310;10.112;2022-12-18T11:17:52;12.27;;;11.07;;
9176;SDS011;4623;54.310;10.112;2022-12-18T11:20:20;13.20;;;11.43;;
9176;SDS011;4623;54.310;10.112;2022-12-18T11:23:03;12.00;;;10.67;;
9176;SDS011;4623;54.310;10.112;2022-12-18T11:25:30;12.10;;;10.00;;
9176;SDS011;4623;54.310;10.112;2022-12-18T11:27:58;12.40;;;10.77;;
9176;SDS011;4623;54.310;10.112;2022-12-18T11:32:56;12.53;;;10.77;;
9176;SDS011;4623;54.310;10.112;2022-12-18T11:37:54;16.43;;;10.00;;
9176;SDS011;4623;54.310;10.112;2022-12-18T11:40:35;11.80;;;9.47;;
9176;SDS011;4623;54.310;10.112;2022-12-18T11:43:06;12.20;;;10.40;;
9176;SDS011;4623;54.310;10.112;2022-12-18T11:45:50;11.70;;;10.40;;
9176;SDS011;4623;54.310;10.112;2022-12-18T11:48:40;12.37;;;11.10;;
9176;SDS011;4623;54.310;10.112;2022-12-18T11:51:11;12.50;;;11.23;;
9176;SDS011;4623;54.310;10.112;2022-12-18T11:53:43;14.33;;;12.93;;
9176;SDS011;4623;54.310;10.112;2022-12-18T11:59:19;14.93;;;12.33;;
9176;SDS011;4623;54.310;10.112;2022-12-18T12:01:54;11.97;;;10.30;;
9176;SDS011;4623;54.310;10.112;2022-12-18T12:07:03;12.70;;;11.37;;
9176;SDS011;4623;54.310;10.112;2022-12-18T12:10:01;12.67;;;11.40;;
9176;SDS011;4623;54.310;10.112;2022-12-18T12:12:53;13.20;;;11.50;;
9176;SDS011;4623;54.310;10.112;2022-12-18T12:15:31;13.77;;;10.70;;
9176;SDS011;4623;54.310;10.112;2022-12-18T12:26:27;12.50;;;10.27;;
9176;SDS011;4623;54.310;10.112;2022-12-18T12:29:17;13.90;;;10.37;;
9176;SDS011;4623;54.310;10.112;2022-12-18T12:32:01;12.73;;;10.00;;
9176;SDS011;4623;54.310;10.112;2022-12-18T12:34:50;14.27;;;10.70;;
9176;SDS011;4623;54.310;10.112;2022-12-18T12:40:23;12.53;;;11.13;;
9176;SDS011;4623;54.310;10.112;2022-12-18T12:42:55;14.25;;;10.98;;
9176;SDS011;4623;54.310;10.112;2022-12-18T12:48:33;16.00;;;9.80;;
9176;SDS011;4623;54.310;10.112;2022-12-18T12:51:00;12.07;;;9.13;;
9176;SDS011;4623;54.310;10.112;2022-12-18T12:53:33;14.57;;;10.90;;
9176;SDS011;4623;54.310;10.112;2022-12-18T12:56:01;12.97;;;10.13;;
9176;SDS011;4623;54.310;10.112;2022-12-18T13:01:17;11.17;;;9.77;;
9176;SDS011;4623;54.310;10.112;2022-12-18T13:06:53;11.93;;;9.70;;
9176;SDS011;4623;54.310;10.112;2022-12-18T13:09:29;12.43;;;10.30;;
9176;SDS011;4623;54.310;10.112;2022-12-18T13:12:09;13.03;;;11.23;;
9176;SDS011;4623;54.310;10.112;2022-12-18T13:15:12;13.47;;;11.37;;
9176;SDS011;4623;54.310;10.112;2022-12-18T13:17:45;13.37;;;11.27;;
9176;SDS011;4623;54.310;10.112;2022-12-18T13:20:12;15.70;;;10.53;;
9176;SDS011;4623;54.310;10.112;2022-12-18T13:22:43;15.88;;;10.80;;
9176;SDS011;4623;54.310;10.112;2022-12-18T13:25:30;14.40;;;10.83;;
9176;SDS011;4623;54.310;10.112;2022-12-18T13:28:09;17.30;;;12.17;;
9176;SDS011;4623;54.310;10.112;2022-12-18T13:38:33;16.77;;;12.87;;
9176;SDS011;4623;54.310;10.112;2022-12-18T13:43:47;13.97;;;11.03;;
9176;SDS011;4623;54.310;10.112;2022-12-18T13:46:21;13.40;;;11.90;;
9176;SDS011;4623;54.310;10.112;2022-12-18T13:48:50;15.00;;;12.17;;
9176;SDS011;4623;54.310;10.112;2022-12-18T13:51:22;19.40;;;13.43;;
9176;SDS011;4623;54.310;10.112;2022-12-18T13:53:53;21.63;;;15.67;;
9176;SDS011;4623;54.310;10.112;2022-12-18T13:56:23;23.87;;;17.77;;
9176;SDS011;4623;54.310;10.112;2022-12-18T13:59:04;20.80;;;16.07;;
9176;SDS011;4623;54.310;10.112;2022-12-18T14:01:33;23.83;;;17.77;;
9176;SDS011;4623;54.310;10.112;2022-12-18T14:04:08;22.93;;;16.20;;
9176;SDS011;4623;54.310;10.112;2022-12-18T14:06:35;21.33;;;15.67;;
9176;SDS011;4623;54.310;10.112;2022-12-18T14:09:00;19.10;;;14.73;;
9176;SDS011;4623;54.310;10.112;2022-12-18T14:11:27;16.23;;;13.03;;
9176;SDS011;4623;54.310;10.112;2022-12-18T14:13:54;20.03;;;13.97;;
9176;SDS011;4623;54.310;10.112;2022-12-18T14:16:19;21.53;;;13.77;;
9176;SDS011;4623;54.310;10.112;2022-12-18T14:18:55;16.37;;;12.93;;
9176;SDS011;4623;54.310;10.112;2022-12-18T14:21:23;18.63;;;13.90;;
9176;SDS011;4623;54.310;10.112;2022-12-18T14:26:31;13.37;;;11.63;;
9176;SDS011;4623;54.310;10.112;2022-12-18T14:28:58;16.27;;;11.90;;
9176;SDS011;4623;54.310;10.112;2022-12-18T14:31:27;18.10;;;12.13;;
9176;SDS011;4623;54.310;10.112;2022-12-18T14:33:54;21.33;;;13.37;;
9176;SDS011;4623;54.310;10.112;2022-12-18T14:36:22;17.33;;;13.53;;
9176;SDS011;4623;54.310;10.112;2022-12-18T14:38:50;17.23;;;13.13;;
9176;SDS011;4623;54.310;10.112;2022-12-18T14:41:18;18.37;;;12.53;;
9176;SDS011;4623;54.310;10.112;2022-12-18T14:43:45;22.13;;;14.47;;
9176;SDS011;4623;54.310;10.112;2022-12-18T14:48:57;17.30;;;12.77;;
9176;SDS011;4623;54.310;10.112;2022-12-18T14:51:25;19.93;;;13.87;;
9176;SDS011;4623;54.310;10.112;2022-12-18T14:56:27;21.27;;;14.90;;
9176;SDS011;4623;54.310;10.112;2022-12-18T14:59:02;18.90;;;13.67;;
9176;SDS011;4623;54.310;10.112;2022-12-18T15:01:38;21.47;;;14.77;;
9176;SDS011;4623;54.310;10.112;2022-12-18T15:04:23;19.03;;;13.47;;
9176;SDS011;4623;54.310;10.112;2022-12-18T15:06:50;18.80;;;13.33;;
9176;SDS011;4623;54.310;10.112;2022-12-18T15:09:39;20.93;;;14.17;;
9176;SDS011;4623;54.310;10.112;2022-12-18T15:12:22;19.10;;;12.80;;
9176;SDS011;4623;54.310;10.112;2022-12-18T15:14:53;21.60;;;14.43;;
9176;SDS011;4623;54.310;10.112;2022-12-18T15:17:19;20.60;;;13.53;;
9176;SDS011;4623;54.310;10.112;2022-12-18T15:19:47;21.90;;;14.93;;
9176;SDS011;4623;54.310;10.112;2022-12-18T15:22:17;20.13;;;14.03;;
9176;SDS011;4623;54.310;10.112;2022-12-18T15:24:45;20.07;;;14.00;;
9176;SDS011;4623;54.310;10.112;2022-12-18T15:30:02;21.90;;;14.90;;
9176;SDS011;4623;54.310;10.112;2022-12-18T15:32:35;23.43;;;15.80;;
9176;SDS011;4623;54.310;10.112;2022-12-18T15:37:36;21.83;;;14.10;;
9176;SDS011;4623;54.310;10.112;2022-12-18T15:40:02;24.20;;;14.60;;
9176;SDS011;4623;54.310;10.112;2022-12-18T15:42:29;24.83;;;15.80;;
9176;SDS011;4623;54.310;10.112;2022-12-18T15:45:13;23.10;;;14.60;;
9176;SDS011;4623;54.310;10.112;2022-12-18T15:47:39;24.43;;;14.90;;
9176;SDS011;4623;54.310;10.112;2022-12-18T15:50:07;19.87;;;14.47;;
9176;SDS011;4623;54.310;10.112;2022-12-18T15:52:35;20.73;;;14.70;;
9176;SDS011;4623;54.310;10.112;2022-12-18T15:55:14;26.63;;;15.77;;
9176;SDS011;4623;54.310;10.112;2022-12-18T15:58:02;24.33;;;16.53;;
9176;SDS011;4623;54.310;10.112;2022-12-18T16:00:29;25.03;;;15.30;;
9176;SDS011;4623;54.310;10.112;2022-12-18T16:02:54;22.67;;;15.40;;
9176;SDS011;4623;54.310;10.112;2022-12-18T16:05:20;27.30;;;15.93;;
9176;SDS011;4623;54.310;10.112;2022-12-18T16:07:48;26.17;;;16.87;;
9176;SDS011;4623;54.310;10.112;2022-12-18T16:10:13;28.00;;;17.00;;
9176;SDS011;4623;54.310;10.112;2022-12-18T16:12:39;26.93;;;15.17;;
9176;SDS011;4623;54.310;10.112;2022-12-18T16:15:06;25.93;;;16.60;;
9176;SDS011;4623;54.310;10.112;2022-12-18T16:17:32;24.17;;;15.43;;
9176;SDS011;4623;54.310;10.112;2022-12-18T16:19:58;29.33;;;18.37;;
9176;SDS011;4623;54.310;10.112;2022-12-18T16:22:24;21.07;;;14.77;;
9176;SDS011;4623;54.310;10.112;2022-12-18T16:24:52;23.73;;;15.37;;
9176;SDS011;4623;54.310;10.112;2022-12-18T16:27:19;29.53;;;16.47;;
9176;SDS011;4623;54.310;10.112;2022-12-18T16:29:45;29.70;;;17.57;;
9176;SDS011;4623;54.310;10.112;2022-12-18T16:32:12;31.97;;;18.57;;
9176;SDS011;4623;54.310;10.112;2022-12-18T16:34:42;27.77;;;17.97;;